Time;durP1;ratioP1;P1;durP2;ratioP2;P2;SDS_P1;SDS_P2;PMS_P1;PMS_P2;Temp;Humidity;BMP_temperature;BMP_pressure;BME280_temperature;BME280_humidity;BME280_pressure;Samples;Min_cycle;Max_cycle;Signal;HPM_P1;HPM_P2
2022/11/17 00:01:14;;;;;;;32.00;19.70;;;6.20;99.90;;;6.03;97.62;96400.66;5036639;28;20521;-72
2022/11/17 00:03:41;;;;;;;30.83;20.70;;;6.20;99.90;;;6.12;97.09;96391.25;5029361;28;20458;-72
2022/11/17 00:06:08;;;;;;;29.30;20.90;;;6.30;99.90;;;6.21;96.67;96397.94;5043020;28;20458;-72
2022/11/17 00:08:35;;;;;;;30.00;19.70;;;6.30;99.90;;;6.18;96.85;96387.66;5024144;28;20474;-75
2022/11/17 00:11:03;;;;;;;35.73;22.57;;;6.30;99.90;;;6.21;97.21;96376.47;5042102;28;20951;-73
2022/11/17 00:16:19;;;;;;;33.13;21.67;;;6.30;99.90;;;6.13;97.76;96360.69;5031621;28;20459;-72
2022/11/17 00:21:32;;;;;;;33.90;21.23;;;6.40;99.90;;;5.84;97.50;96303.34;5023076;28;20463;-72
2022/11/17 00:23:59;;;;;;;34.90;22.87;;;6.40;99.90;;;6.44;97.14;96377.59;5025426;28;20490;-73
2022/11/17 00:26:29;;;;;;;35.67;22.77;;;6.50;99.90;;;6.37;96.84;96371.53;5019613;28;20462;-72
2022/11/17 00:28:58;;;;;;;35.50;21.60;;;6.50;99.90;;;6.56;96.64;96382.19;5025913;28;21084;-72
2022/11/17 00:34:16;;;;;;;31.07;20.70;;;6.70;99.90;;;6.57;95.60;96375.75;5027099;28;20632;-72
2022/11/17 00:36:47;;;;;;;35.43;23.20;;;6.70;99.90;;;6.49;96.56;96375.06;5026414;28;20958;-71
2022/11/17 00:39:15;;;;;;;37.43;23.30;;;6.70;99.90;;;6.47;96.65;96387.88;5029541;28;20931;-71
2022/11/17 00:41:42;;;;;;;34.17;21.57;;;6.70;99.90;;;6.44;97.37;96366.84;5042089;28;20527;-71
2022/11/17 00:44:10;;;;;;;36.63;21.20;;;6.70;99.90;;;6.42;97.33;96358.22;5020255;28;20482;-71
2022/11/17 00:46:39;;;;;;;41.50;22.37;;;6.80;99.90;;;6.36;98.67;96364.53;5022467;28;20463;-72
2022/11/17 00:49:08;;;;;;;38.83;23.37;;;6.70;99.90;;;6.62;98.23;96362.50;5020769;28;20451;-72
2022/11/17 00:51:36;;;;;;;36.67;22.53;;;6.80;99.90;;;6.73;97.50;96358.97;5021162;28;20642;-71
2022/11/17 00:54:04;;;;;;;34.67;21.27;;;6.90;99.90;;;6.61;97.11;96344.75;5021247;28;20863;-74
2022/11/17 00:56:32;;;;;;;35.80;20.53;;;6.90;99.90;;;6.54;97.97;96360.13;5019948;28;21081;-72
2022/11/17 00:58:59;;;;;;;36.67;21.03;;;6.90;99.90;;;6.55;98.38;96356.41;5020930;28;20458;-72
2022/11/17 01:01:28;;;;;;;37.80;21.43;;;6.90;99.90;;;6.62;98.19;96349.06;5037838;28;20460;-72
2022/11/17 01:04:02;;;;;;;36.30;22.60;;;6.90;99.90;;;6.80;97.41;96354.34;5031120;28;20454;-72
2022/11/17 01:06:32;;;;;;;38.70;22.33;;;6.90;99.90;;;6.76;96.71;96352.34;5030454;28;20450;-72
2022/11/17 01:09:00;;;;;;;35.43;21.30;;;7.00;99.90;;;6.84;96.49;96343.97;5046429;28;20459;-73
2022/11/17 01:11:28;;;;;;;38.60;21.07;;;7.10;99.90;;;6.95;96.44;96343.13;5029297;28;20538;-73
2022/11/17 01:13:59;;;;;;;39.47;23.10;;;7.10;99.90;;;6.89;96.34;96348.59;5027610;28;20488;-72
2022/11/17 01:16:28;;;;;;;34.90;21.53;;;7.10;99.90;;;6.92;96.31;96340.91;5044400;28;20942;-73
2022/11/17 01:18:59;;;;;;;39.70;20.77;;;7.10;99.90;;;6.77;96.42;96335.19;5018852;28;20861;-73
2022/11/17 01:21:28;;;;;;;37.77;20.70;;;7.10;99.90;;;6.83;96.84;96342.31;5023392;28;20459;-73
2022/11/17 01:23:57;;;;;;;33.10;21.07;;;7.10;99.90;;;7.07;95.91;96343.16;5029572;28;20461;-71
2022/11/17 01:26:26;;;;;;;33.60;19.27;;;7.20;99.90;;;6.97;96.06;96337.53;5028627;28;20914;-72
2022/11/17 01:28:54;;;;;;;34.20;21.50;;;7.20;99.90;;;6.87;96.38;96334.59;5020251;28;20473;-73
2022/11/17 01:31:25;;;;;;;31.70;21.43;;;7.20;99.90;;;6.89;96.57;96340.56;5025674;28;20517;-71
2022/11/17 01:33:53;;;;;;;33.03;20.60;;;7.20;99.90;;;6.92;96.81;96329.38;5019543;28;20450;-73
2022/11/17 01:36:25;;;;;;;38.83;19.73;;;7.20;99.90;;;6.96;96.94;96330.53;5037882;28;20470;-73
2022/11/17 01:38:56;;;;;;;31.17;21.43;;;7.20;99.90;;;7.09;95.53;96324.09;5021585;28;20520;-73
2022/11/17 01:41:26;;;;;;;37.60;20.20;;;7.20;99.90;;;7.02;96.19;96323.41;5034759;28;20446;-73
2022/11/17 01:43:56;;;;;;;32.23;19.80;;;7.20;99.90;;;7.09;95.38;96324.09;5018269;28;20565;-72
2022/11/17 01:46:31;;;;;;;34.83;20.20;;;7.20;99.90;;;7.16;95.10;96318.59;5034469;28;20951;-73
2022/11/17 01:49:05;;;;;;;37.03;20.47;;;7.30;99.90;;;7.11;95.85;96319.31;5022541;28;20501;-71
2022/11/17 01:51:37;;;;;;;36.07;20.57;;;7.20;99.90;;;7.26;94.97;96313.47;5044820;28;20477;-71
2022/11/17 01:54:04;;;;;;;26.27;17.50;;;7.30;99.90;;;6.88;96.02;96293.28;5019952;28;21053;-70
2022/11/17 01:56:38;;;;;;;34.63;20.63;;;7.30;99.90;;;7.00;95.94;96299.47;5021963;28;20450;-71
2022/11/17 01:59:11;;;;;;;30.87;19.27;;;7.30;99.90;;;7.19;95.12;96294.78;5023995;28;20847;-70
2022/11/17 02:01:54;;;;;;;27.70;17.53;;;7.30;99.90;;;7.06;95.42;96303.09;5026370;28;20540;-71
2022/11/17 02:04:23;;;;;;;29.53;19.77;;;7.30;99.90;;;7.12;95.67;96279.84;5040657;28;20455;-71
2022/11/17 02:06:57;;;;;;;33.50;20.07;;;7.30;99.90;;;7.09;95.75;96276.59;5023133;28;20458;-72
2022/11/17 02:09:26;;;;;;;31.67;20.63;;;7.30;99.90;;;7.16;95.50;96275.63;5025212;28;20856;-71
2022/11/17 02:11:55;;;;;;;30.63;19.33;;;7.30;99.90;;;7.27;95.14;96280.16;5025964;28;20449;-72
2022/11/17 02:14:23;;;;;;;34.83;20.47;;;7.30;99.90;;;7.07;95.47;96276.00;5020287;28;20448;-72
2022/11/17 02:16:50;;;;;;;25.40;18.07;;;7.30;99.90;;;6.71;95.28;96204.63;5025378;28;20450;-73
2022/11/17 02:19:20;;;;;;;31.30;19.70;;;7.30;99.90;;;7.34;94.69;96278.16;5022279;28;20466;-71
2022/11/17 02:22:52;;;;;;;30.47;19.17;;;7.40;99.90;;;7.45;93.76;96270.31;5022539;28;20528;-72
2022/11/17 02:25:30;;;;;;;29.83;18.13;;;7.40;99.90;;;7.40;93.42;96267.53;4976305;28;20457;-72
2022/11/17 02:28:15;;;;;;;36.93;20.10;;;7.50;99.90;;;7.37;93.63;96261.59;5029998;28;20458;-72
2022/11/17 02:30:58;;;;;;;31.17;19.27;;;7.50;99.90;;;7.44;93.41;96260.63;5017171;28;20463;-71
2022/11/17 02:33:38;;;;;;;30.67;18.73;;;7.50;99.90;;;7.53;92.72;96259.19;5025369;28;20613;-72
2022/11/17 02:36:10;;;;;;;28.70;17.20;;;7.50;99.90;;;7.36;93.14;96259.13;5038120;28;20464;-70
2022/11/17 02:38:44;;;;;;;28.77;18.07;;;7.60;99.90;;;7.42;93.27;96235.88;5019045;28;21021;-72
2022/11/17 02:41:18;;;;;;;33.27;18.80;;;7.60;99.90;;;7.03;94.14;96186.22;5021451;28;20475;-72
2022/11/17 02:44:02;;;;;;;26.87;17.90;;;7.50;99.90;;;7.12;93.05;96162.47;5020798;28;20474;-72
2022/11/17 02:46:37;;;;;;;24.07;16.27;;;7.50;99.90;;;7.44;92.88;96225.69;5019373;28;20449;-73
2022/11/17 02:49:13;;;;;;;26.43;16.57;;;7.50;99.90;;;7.38;93.47;96230.16;5024107;28;20462;-71
2022/11/17 02:51:43;;;;;;;26.67;15.10;;;7.50;99.90;;;7.40;92.91;96233.41;5020167;28;20512;-71
2022/11/17 02:54:11;;;;;;;24.77;15.50;;;7.50;99.90;;;7.45;92.72;96230.00;5012998;28;20453;-72
2022/11/17 02:56:41;;;;;;;30.10;17.67;;;7.50;99.90;;;7.36;93.02;96214.28;5017554;28;20472;-72
2022/11/17 02:59:14;;;;;;;22.97;15.60;;;7.50;99.90;;;7.22;94.11;96211.03;5037834;28;20467;-71
2022/11/17 03:02:33;;;;;;;21.80;15.17;;;7.50;99.90;;;7.29;94.52;96216.28;5023563;28;20455;-72
2022/11/17 03:05:17;;;;;;;26.83;16.30;;;7.50;99.90;;;7.44;92.55;96210.41;5040784;28;20470;-72
2022/11/17 03:07:58;;;;;;;26.47;16.53;;;7.50;99.90;;;7.36;93.54;96194.66;5027554;28;20459;-71
2022/11/17 03:10:41;;;;;;;25.13;15.70;;;7.50;99.90;;;7.33;93.70;96190.56;5027758;28;20932;-73
2022/11/17 03:13:18;;;;;;;24.33;15.80;;;7.50;99.90;;;7.14;94.64;96171.13;5020141;28;20509;-73
2022/11/17 03:15:55;;;;;;;28.63;17.13;;;7.40;99.90;;;7.39;93.84;96167.28;5017810;28;20480;-73
2022/11/17 03:18:29;;;;;;;25.90;15.63;;;7.40;99.90;;;7.29;93.15;96151.81;5024056;28;20981;-74
2022/11/17 03:21:08;;;;;;;24.17;16.03;;;7.50;99.90;;;7.53;92.00;96167.81;5021293;28;20943;-74
2022/11/17 03:23:43;;;;;;;26.30;14.30;;;7.50;99.90;;;7.33;93.69;96169.06;5018277;28;20841;-72
2022/11/17 03:26:16;;;;;;;27.00;15.10;;;7.50;99.90;;;7.30;92.99;96140.00;5022219;28;20536;-72
2022/11/17 03:28:46;;;;;;;23.50;14.40;;;7.50;99.90;;;7.50;92.11;96163.75;5041792;28;20454;-71
2022/11/17 03:31:16;;;;;;;25.07;15.67;;;7.60;99.90;;;7.41;92.45;96156.31;5025115;28;20509;-73
2022/11/17 03:33:48;;;;;;;24.30;15.40;;;7.60;99.90;;;7.35;92.81;96166.97;5018286;28;20455;-73
2022/11/17 03:36:20;;;;;;;24.47;14.47;;;7.50;99.90;;;7.28;93.44;96170.84;5015734;28;20473;-74
2022/11/17 03:38:55;;;;;;;26.63;15.40;;;7.50;99.90;;;7.54;92.61;96172.16;5015392;28;20455;-74
2022/11/17 03:41:26;;;;;;;20.63;14.13;;;7.50;99.90;;;7.32;92.93;96166.63;5034110;28;20583;-73
2022/11/17 03:43:57;;;;;;;23.57;13.77;;;7.50;99.90;;;7.39;93.01;96164.59;5031039;28;20553;-72
2022/11/17 03:46:28;;;;;;;25.23;15.73;;;7.50;99.90;;;7.36;93.26;96170.47;5019750;28;20525;-72
2022/11/17 03:49:01;;;;;;;24.23;15.97;;;7.50;99.90;;;7.37;93.21;96169.41;5018991;28;20556;-73
2022/11/17 03:51:32;;;;;;;22.07;13.97;;;7.50;99.90;;;7.41;92.35;96156.31;5031959;28;21432;-72
2022/11/17 03:54:01;;;;;;;32.50;15.67;;;7.60;99.90;;;7.43;92.05;96167.63;5034883;28;20594;-71
2022/11/17 03:56:38;;;;;;;25.33;15.60;;;7.50;99.90;;;7.17;92.50;96132.22;5031733;28;20502;-71
2022/11/17 03:59:14;;;;;;;19.80;13.80;;;7.50;99.90;;;7.19;91.39;96105.94;5032112;28;20530;-72
2022/11/17 04:01:43;;;;;;;22.00;13.90;;;7.60;99.90;;;7.35;92.01;96139.28;5018914;28;21052;-71
2022/11/17 04:04:15;;;;;;;23.57;14.23;;;7.50;99.90;;;7.24;93.01;96138.28;5034016;28;21207;-71
2022/11/17 04:06:42;;;;;;;24.50;15.30;;;7.50;99.90;;;7.54;91.80;96141.75;5016321;28;20529;-71
2022/11/17 04:09:10;;;;;;;21.23;15.00;;;7.60;99.90;;;7.15;91.64;96062.66;5028520;28;20557;-72
2022/11/17 04:17:08;;;;;;;20.50;13.20;;;7.60;99.90;;;7.54;91.21;96125.63;5026778;28;20458;-73
2022/11/17 04:19:36;;;;;;;24.73;14.37;;;7.60;99.90;;;7.38;91.61;96111.94;5026835;28;20470;-72
2022/11/17 04:22:03;;;;;;;22.23;13.90;;;7.60;99.90;;;7.37;92.49;96131.78;5020342;28;20950;-77
2022/11/17 04:24:31;;;;;;;23.60;14.67;;;7.60;99.90;;;7.30;92.52;96123.88;5029057;28;20454;-72
2022/11/17 04:29:58;;;;;;;20.83;14.03;;;7.50;99.90;;;7.22;92.93;96121.59;4972781;28;20613;-72
2022/11/17 04:32:26;;;;;;;22.63;15.03;;;7.50;99.90;;;7.08;93.28;96049.38;4965049;28;21033;-73
2022/11/17 04:34:54;;;;;;;24.53;15.20;;;7.50;99.90;;;7.36;92.37;96087.19;4994149;28;20582;-71
2022/11/17 04:37:21;;;;;;;20.53;13.50;;;7.50;99.90;;;7.29;92.21;96081.16;5027544;28;20444;-72
2022/11/17 04:39:49;;;;;;;19.93;13.03;;;7.50;99.90;;;7.33;92.73;96083.09;5023151;28;20505;-71
2022/11/17 04:42:15;;;;;;;22.20;14.27;;;7.50;99.90;;;7.22;92.64;96082.09;5041194;28;20845;-74
2022/11/17 04:44:42;;;;;;;22.90;14.07;;;7.50;99.90;;;7.18;92.88;96064.03;5020623;28;20524;-73
2022/11/17 04:47:09;;;;;;;20.70;12.93;;;7.40;99.90;;;7.26;92.39;96050.22;5026498;28;21204;-73
2022/11/17 04:49:38;;;;;;;19.47;13.27;;;7.40;99.90;;;7.30;92.67;96062.09;5026515;28;20470;-74
2022/11/17 04:52:05;;;;;;;16.83;12.03;;;7.40;99.90;;;7.44;91.51;96094.03;5025062;28;20783;-73
2022/11/17 04:54:33;;;;;;;21.03;12.40;;;7.50;99.90;;;7.42;91.28;96096.13;5026088;28;20502;-72
2022/11/17 04:57:00;;;;;;;20.50;12.50;;;7.50;99.90;;;7.40;91.71;96082.94;5027401;28;20455;-72
2022/11/17 04:59:27;;;;;;;18.30;12.60;;;7.50;99.90;;;7.41;91.09;96073.81;5019343;28;20514;-73
2022/11/17 05:01:54;;;;;;;20.87;13.53;;;7.50;99.90;;;7.30;90.80;96080.91;5027968;28;20443;-72
2022/11/17 05:07:05;;;;;;;20.87;13.23;;;7.50;99.90;;;7.21;92.17;96079.69;5031951;28;20450;-73
2022/11/17 05:09:32;;;;;;;18.00;12.07;;;7.40;99.90;;;7.10;93.19;96081.34;5045996;28;20485;-72
2022/11/17 05:14:46;;;;;;;17.43;12.30;;;7.30;99.90;;;7.32;91.94;96092.22;5023706;28;20464;-72
2022/11/17 05:17:12;;;;;;;20.40;12.60;;;7.40;99.90;;;7.31;92.07;96087.91;5022044;28;20477;-73
2022/11/17 05:19:43;;;;;;;20.40;13.60;;;7.40;99.90;;;7.34;90.79;96098.16;5025794;28;20449;-71
2022/11/17 05:24:58;;;;;;;16.77;11.80;;;7.40;99.90;;;7.25;91.52;96096.94;5014011;28;20984;-71
2022/11/17 05:27:26;;;;;;;18.23;12.57;;;7.40;99.90;;;7.28;91.61;96112.56;5030489;28;20443;-72
2022/11/17 05:29:53;;;;;;;17.20;12.03;;;7.50;99.90;;;7.24;91.13;96114.09;5029147;28;20450;-73
2022/11/17 05:32:20;;;;;;;18.73;11.87;;;7.40;99.90;;;7.01;90.66;96064.81;5020421;28;20981;-71
2022/11/17 05:34:48;;;;;;;19.33;12.03;;;7.40;99.90;;;7.43;90.63;96097.78;5035372;28;20853;-72
2022/11/17 05:37:16;;;;;;;15.60;10.93;;;7.50;99.90;;;7.45;90.39;96103.72;5037412;28;20868;-72
2022/11/17 05:39:44;;;;;;;17.37;12.70;;;7.50;99.90;;;7.50;90.28;96098.41;5020692;28;20532;-70
2022/11/17 05:42:11;;;;;;;17.77;11.47;;;7.60;99.90;;;7.56;90.55;96096.63;5019650;28;22578;-71
2022/11/17 05:44:38;;;;;;;17.93;12.60;;;7.70;99.90;;;7.64;89.16;96094.34;5011490;28;20641;-72
2022/11/17 05:47:06;;;;;;;20.20;11.90;;;7.70;99.90;;;7.67;88.73;96095.75;5018383;28;20512;-71
2022/11/17 05:49:33;;;;;;;16.93;12.30;;;7.70;99.90;;;7.61;88.75;96088.69;5037574;28;20903;-72
2022/11/17 05:52:00;;;;;;;17.67;12.70;;;7.70;99.90;;;7.37;89.62;96084.25;5020813;28;20453;-71
2022/11/17 05:54:28;;;;;;;21.07;13.40;;;7.60;99.90;;;7.42;89.11;96091.56;5038253;28;20456;-72
2022/11/17 05:56:59;;;;;;;21.63;12.47;;;7.60;99.70;;;7.41;89.61;96102.56;5016962;28;20478;-70
2022/11/17 05:59:34;;;;;;;18.43;11.43;;;7.60;99.90;;;7.27;89.54;96099.34;5002770;28;20474;-76
2022/11/17 06:02:06;;;;;;;17.07;13.17;;;7.60;99.90;;;7.42;89.75;96088.09;5030840;28;20913;-74
2022/11/17 06:04:34;;;;;;;19.50;12.83;;;7.60;99.90;;;7.45;89.79;96095.66;5012876;28;20487;-69
2022/11/17 06:07:02;;;;;;;17.03;11.80;;;7.60;99.90;;;7.16;91.03;96093.00;5017754;28;21069;-68
2022/11/17 06:09:34;;;;;;;21.20;13.00;;;7.50;99.90;;;7.40;90.53;96098.25;5030385;28;20547;-69
2022/11/17 06:12:01;;;;;;;18.50;12.63;;;7.50;99.90;;;7.56;89.61;96108.22;5017941;28;20575;-68
2022/11/17 06:14:28;;;;;;;17.50;12.30;;;7.60;99.90;;;7.42;90.45;96096.94;5013845;28;20454;-68
2022/11/17 06:17:00;;;;;;;19.97;12.93;;;7.60;99.90;;;7.34;90.79;96095.47;5021297;28;20952;-69
2022/11/17 06:19:32;;;;;;;19.07;12.83;;;7.50;99.90;;;7.19;91.73;96087.13;5024147;28;20873;-69
2022/11/17 06:22:00;;;;;;;21.10;14.63;;;7.50;99.90;;;7.34;91.59;96089.28;5015629;28;20452;-70
2022/11/17 06:24:27;;;;;;;22.03;14.33;;;7.40;99.90;;;7.37;91.11;96091.50;5018200;28;20475;-71
2022/11/17 06:26:56;;;;;;;23.63;14.10;;;7.50;99.90;;;7.42;91.02;96090.78;5016639;28;20455;-69
2022/11/17 06:29:23;;;;;;;24.60;13.50;;;7.50;99.90;;;7.40;91.10;96103.63;5014413;28;20466;-69
2022/11/17 06:31:50;;;;;;;20.93;13.53;;;7.50;99.90;;;7.39;91.96;96118.13;5016524;28;20470;-68
2022/11/17 06:34:17;;;;;;;22.90;14.33;;;7.60;99.90;;;7.43;91.51;96120.09;5016478;28;20458;-69
2022/11/17 06:36:44;;;;;;;25.27;15.37;;;7.50;99.90;;;7.64;92.33;96115.84;5018994;28;20767;-68
2022/11/17 06:39:13;;;;;;;20.37;13.90;;;7.60;99.90;;;7.55;91.08;96117.34;5022023;28;20447;-69
2022/11/17 06:41:40;;;;;;;25.03;16.87;;;7.70;99.90;;;7.43;91.68;96130.00;5019967;28;21016;-68
2022/11/17 06:44:08;;;;;;;21.73;14.60;;;7.60;99.90;;;7.46;92.35;96126.84;5016522;28;20517;-69
2022/11/17 06:46:37;;;;;;;25.63;16.57;;;7.60;99.90;;;7.72;92.08;96138.03;5037928;28;20462;-69
2022/11/17 06:49:08;;;;;;;22.03;16.00;;;7.60;99.90;;;7.85;91.36;96137.72;5012621;28;20624;-68
2022/11/17 06:51:36;;;;;;;23.50;16.30;;;7.70;99.90;;;7.69;90.94;96141.22;5018272;28;20458;-68
2022/11/17 06:54:04;;;;;;;25.20;16.97;;;7.70;99.90;;;7.82;90.91;96143.59;5023717;28;21003;-70
2022/11/17 06:56:31;;;;;;;28.63;17.13;;;7.70;99.90;;;7.80;91.30;96151.06;5023470;28;20467;-70
2022/11/17 06:58:58;;;;;;;24.90;15.53;;;7.80;99.90;;;7.77;90.94;96147.00;5021353;28;20510;-69
2022/11/17 07:01:27;;;;;;;25.43;17.67;;;7.80;99.90;;;7.50;91.85;96130.66;5020882;28;20980;-68
2022/11/17 07:03:54;;;;;;;23.87;15.77;;;7.70;99.90;;;7.31;93.16;96147.00;5021793;28;20470;-71
2022/11/17 07:06:22;;;;;;;30.33;17.27;;;7.60;99.90;;;7.21;93.94;96133.41;5022384;28;20457;-69
2022/11/17 07:08:49;;;;;;;28.10;18.27;;;7.50;99.90;;;7.23;94.90;96139.34;5019323;28;20535;-71
2022/11/17 07:11:17;;;;;;;31.33;17.97;;;7.40;99.90;;;7.31;94.30;96138.94;5020746;28;20451;-70
2022/11/17 07:13:44;;;;;;;30.40;19.17;;;7.40;99.90;;;7.35;94.41;96124.00;5014408;28;20479;-69
2022/11/17 07:16:14;;;;;;;28.00;18.20;;;7.50;99.90;;;7.26;94.74;96120.06;5023384;28;20462;-69
2022/11/17 07:18:43;;;;;;;28.43;17.87;;;7.50;99.90;;;7.29;94.50;96116.88;5023779;28;20459;-68
2022/11/17 07:21:13;;;;;;;32.90;19.80;;;7.50;99.90;;;7.33;94.78;96095.72;5021097;28;20978;-71
2022/11/17 07:23:43;;;;;;;33.50;19.80;;;7.50;99.90;;;7.29;95.31;96098.06;5027003;28;20528;-70
2022/11/17 07:26:11;;;;;;;28.27;18.83;;;7.40;99.90;;;7.36;94.20;96089.88;5023812;28;20455;-70
2022/11/17 07:28:38;;;;;;;30.33;19.40;;;7.50;99.90;;;7.45;94.12;96101.03;5023685;28;20463;-70
2022/11/17 07:31:07;;;;;;;31.87;20.77;;;7.50;99.90;;;7.42;93.65;96096.13;5035370;28;20443;-69
2022/11/17 07:33:35;;;;;;;29.23;19.00;;;7.60;99.90;;;7.46;93.31;96116.09;5027765;28;20954;-69
2022/11/17 07:36:05;;;;;;;29.23;18.63;;;7.60;99.90;;;7.47;93.76;96131.16;5014718;28;20870;-71
2022/11/17 07:38:33;;;;;;;29.43;19.93;;;7.60;99.90;;;7.45;93.12;96127.91;5013738;28;20515;-69
2022/11/17 07:41:01;;;;;;;30.30;18.80;;;7.60;99.90;;;7.33;93.40;96096.53;5020112;28;20448;-72
2022/11/17 07:43:29;;;;;;;24.60;18.47;;;7.60;99.90;;;7.25;94.10;96094.25;5004270;28;21282;-69
2022/11/17 07:45:56;;;;;;;28.50;18.97;;;7.50;99.90;;;7.32;93.98;96080.66;5020538;28;20451;-70
2022/11/17 07:48:23;;;;;;;27.50;18.40;;;7.50;99.90;;;7.24;94.97;96084.56;5014640;28;20907;-69
2022/11/17 07:50:51;;;;;;;28.17;17.90;;;7.50;99.90;;;7.41;93.89;96083.78;5012954;28;20482;-74
2022/11/17 07:53:20;;;;;;;25.10;18.10;;;7.60;99.90;;;7.48;94.13;96087.94;5018170;28;20463;-70
2022/11/17 07:55:47;;;;;;;27.23;16.97;;;7.60;99.90;;;7.60;92.83;96084.38;5014280;28;20584;-68
2022/11/17 07:58:14;;;;;;;25.87;16.63;;;7.70;99.90;;;7.54;93.07;96083.47;5015280;28;20464;-68
2022/11/17 08:00:41;;;;;;;23.80;16.50;;;7.70;99.90;;;7.36;93.53;96088.00;5012076;28;20537;-68
2022/11/17 08:03:09;;;;;;;23.63;17.93;;;7.70;99.90;;;7.55;93.26;96087.78;5020348;28;20450;-68
2022/11/17 08:05:38;;;;;;;23.70;15.90;;;7.70;99.90;;;7.53;93.02;96089.06;5013420;28;20455;-68
2022/11/17 08:08:08;;;;;;;21.97;16.07;;;7.70;99.90;;;7.61;92.81;96078.72;5007527;28;20628;-69
2022/11/17 08:10:37;;;;;;;22.07;15.73;;;7.80;99.90;;;7.68;92.44;96080.44;5009323;28;20469;-68
2022/11/17 08:13:05;;;;;;;22.00;15.57;;;7.80;99.90;;;7.72;92.03;96081.59;5007308;28;21358;-69
2022/11/17 08:15:32;;;;;;;22.87;16.80;;;7.90;99.90;;;8.00;91.11;96079.88;5009538;28;20462;-68
2022/11/17 08:18:00;;;;;;;22.17;15.00;;;8.00;99.90;;;8.04;90.65;96081.00;5015139;28;20454;-68
2022/11/17 08:20:29;;;;;;;18.57;15.10;;;8.00;99.90;;;7.99;90.51;96086.31;5036966;28;20830;-68
2022/11/17 08:22:57;;;;;;;18.33;13.93;;;8.10;99.90;;;8.36;89.24;96088.44;5035251;28;20850;-69
2022/11/17 08:25:27;;;;;;;18.63;14.20;;;8.20;99.90;;;8.19;89.32;96083.09;5018712;28;20466;-70
2022/11/17 08:27:57;;;;;;;19.60;14.43;;;8.30;99.90;;;8.25;88.74;96092.84;5013872;28;20461;-69
2022/11/17 08:30:26;;;;;;;20.90;14.50;;;8.30;99.90;;;8.36;88.65;96091.13;5009890;28;20469;-68
2022/11/17 08:32:54;;;;;;;16.60;13.60;;;8.40;99.90;;;8.26;88.72;96090.97;5006890;28;20463;-68
2022/11/17 08:35:25;;;;;;;16.70;13.00;;;8.40;99.20;;;8.48;87.81;96097.22;5005747;28;20495;-68
2022/11/17 08:37:53;;;;;;;17.63;12.70;;;8.50;99.80;;;8.14;88.28;96097.28;5008734;28;20790;-69
2022/11/17 08:40:21;;;;;;;14.63;11.87;;;8.40;97.80;;;8.33;88.04;96078.16;5016789;28;20481;-67
2022/11/17 08:42:54;;;;;;;16.00;12.10;;;8.50;98.30;;;8.41;87.81;96074.22;5012409;28;20481;-68
2022/11/17 08:45:22;;;;;;;18.13;12.63;;;8.50;98.30;;;8.40;88.01;96084.16;5020833;28;20798;-67
2022/11/17 08:47:49;;;;;;;16.47;11.80;;;8.60;97.20;;;8.72;85.45;96080.84;5009536;28;20818;-70
2022/11/17 08:50:19;;;;;;;13.03;10.57;;;8.80;95.80;;;8.98;84.94;96089.22;5011638;28;20459;-68
2022/11/17 08:52:46;;;;;;;12.27;10.80;;;8.90;95.40;;;9.04;84.66;96082.00;5008693;28;20903;-70
2022/11/17 08:55:14;;;;;;;13.30;11.00;;;9.10;94.90;;;9.34;84.07;96092.28;5023281;28;20476;-68
2022/11/17 08:57:41;;;;;;;12.33;11.03;;;9.30;94.30;;;9.27;82.41;96109.72;5032276;28;20855;-69
2022/11/17 09:00:12;;;;;;;13.10;10.53;;;9.40;92.80;;;9.41;82.69;96108.25;5010304;28;20574;-68
2022/11/17 09:02:40;;;;;;;12.53;10.30;;;9.40;93.10;;;9.16;83.72;96106.09;5015238;28;20523;-70
2022/11/17 09:05:08;;;;;;;12.83;11.03;;;9.40;93.30;;;9.10;83.50;96121.41;5022436;28;20855;-67
2022/11/17 09:07:36;;;;;;;12.53;10.70;;;9.30;93.20;;;8.82;83.67;96061.31;5012358;28;20540;-69
2022/11/17 09:10:08;;;;;;;12.27;10.20;;;9.20;93.70;;;9.06;84.67;96118.41;5025866;28;20979;-69
2022/11/17 09:12:35;;;;;;;12.90;10.77;;;9.10;94.30;;;9.23;83.30;96098.63;5022953;28;20452;-69
2022/11/17 09:15:03;;;;;;;9.87;8.40;;;9.20;93.90;;;9.23;83.11;96111.28;5008906;28;20472;-69
2022/11/17 09:17:31;;;;;;;10.57;9.37;;;9.30;92.80;;;9.24;83.24;96123.69;5023796;28;20521;-69
2022/11/17 09:20:00;;;;;;;10.13;9.13;;;9.30;92.80;;;9.21;82.31;96109.66;5014900;28;20470;-70
2022/11/17 09:22:27;;;;;;;11.73;10.53;;;9.30;92.90;;;9.31;82.44;96121.63;5012718;28;21034;-69
2022/11/17 09:24:54;;;;;;;10.10;9.07;;;9.30;92.80;;;9.64;81.56;96106.28;5011808;28;20476;-69
2022/11/17 09:27:22;;;;;;;10.83;9.70;;;9.50;92.50;;;9.64;80.74;96101.72;5025461;28;21103;-69
2022/11/17 09:29:49;;;;;;;10.37;9.37;;;9.60;91.80;;;9.55;80.35;96108.66;5009747;28;20529;-69
2022/11/17 09:32:18;;;;;;;10.10;9.10;;;9.60;91.40;;;9.60;81.61;96103.28;5013724;28;20482;-67
2022/11/17 09:34:45;;;;;;;11.00;9.83;;;9.60;91.70;;;9.32;81.79;96099.78;5007735;28;20476;-71
2022/11/17 09:37:13;;;;;;;9.70;8.33;;;9.50;91.60;;;9.43;81.28;96099.91;5007920;28;21026;-68
2022/11/17 09:39:41;;;;;;;11.40;9.70;;;9.50;91.60;;;9.58;81.24;96097.34;5026826;28;20457;-69
2022/11/17 09:42:14;;;;;;;11.57;8.50;;;9.60;91.90;;;9.27;80.77;96091.66;5010336;28;20462;-70
2022/11/17 09:44:51;;;;;;;10.53;9.43;;;9.50;91.50;;;9.29;82.18;96089.53;5008720;28;20491;-69
2022/11/17 09:47:29;;;;;;;10.73;9.33;;;9.50;92.30;;;9.43;82.08;96070.25;5009529;28;21001;-69
2022/11/17 09:50:03;;;;;;;11.30;9.83;;;9.50;92.30;;;9.59;82.09;96074.72;5027208;28;20458;-69
2022/11/17 09:52:43;;;;;;;10.43;9.10;;;9.60;92.60;;;9.42;82.13;96063.25;5007623;28;20458;-70
2022/11/17 09:55:29;;;;;;;14.43;9.27;;;9.60;92.30;;;9.22;83.17;96099.72;5009949;28;20973;-70
2022/11/17 09:58:08;;;;;;;8.87;7.97;;;9.40;93.00;;;9.07;84.14;96087.69;5027604;28;20454;-71
2022/11/17 10:00:39;;;;;;;11.73;9.30;;;9.20;94.20;;;8.90;85.96;96095.06;5004417;28;20472;-72
2022/11/17 10:03:17;;;;;;;10.50;8.43;;;9.10;95.90;;;8.79;87.19;96086.84;5010947;28;20986;-71
2022/11/17 10:05:45;;;;;;;10.73;9.13;;;9.00;98.20;;;8.72;87.99;96088.94;5004103;28;20487;-71
2022/11/17 10:08:18;;;;;;;11.33;9.97;;;8.90;98.80;;;8.71;88.75;96073.81;5005219;28;20832;-71
2022/11/17 10:10:48;;;;;;;12.33;10.07;;;8.80;99.90;;;8.85;88.81;96070.75;5006944;28;20454;-71
2022/11/17 10:13:25;;;;;;;9.50;8.50;;;8.90;99.90;;;8.76;87.90;96041.59;5005979;28;20890;-72
2022/11/17 10:15:57;;;;;;;12.90;10.50;;;9.00;99.90;;;8.81;88.08;96050.78;5021553;28;20462;-73
2022/11/17 10:18:25;;;;;;;11.60;10.03;;;9.00;99.60;;;9.01;88.26;96069.84;5015935;28;20470;-72
2022/11/17 10:20:52;;;;;;;12.40;10.27;;;9.00;99.90;;;9.15;87.78;96072.13;5018278;28;20447;-74
2022/11/17 10:23:22;;;;;;;11.27;9.50;;;9.10;99.90;;;9.07;87.33;96068.84;5026726;28;20549;-73
2022/11/17 10:25:58;;;;;;;9.03;8.13;;;9.20;99.00;;;9.17;86.23;96073.53;5010455;28;20757;-70
2022/11/17 10:28:28;;;;;;;10.93;8.20;;;9.30;96.90;;;9.30;86.57;96072.28;5003499;28;20459;-72
2022/11/17 10:30:59;;;;;;;9.40;8.40;;;9.40;96.60;;;9.34;85.75;96033.00;5007880;28;20471;-72
2022/11/17 10:33:36;;;;;;;8.00;7.30;;;9.60;96.50;;;9.73;83.80;96067.00;5012060;28;20551;-71
2022/11/17 10:36:08;;;;;;;8.87;8.00;;;9.90;94.30;;;9.68;85.18;96077.75;5029002;28;20460;-71
2022/11/17 10:38:37;;;;;;;7.60;6.90;;;9.80;95.10;;;9.32;84.97;96037.81;5024965;28;20530;-71
2022/11/17 10:41:04;;;;;;;7.30;6.63;;;9.70;94.60;;;9.69;84.35;96082.06;5019999;28;20528;-72
2022/11/17 10:43:35;;;;;;;7.70;7.00;;;9.80;94.30;;;9.43;84.18;96062.16;5011954;28;20477;-73
2022/11/17 10:46:06;;;;;;;6.20;5.60;;;9.70;93.90;;;9.45;84.90;96090.50;5010869;28;20474;-73
2022/11/17 10:48:36;;;;;;;7.73;7.03;;;9.70;94.50;;;9.46;85.10;96067.88;5014045;28;20462;-70
2022/11/17 10:51:08;;;;;;;7.60;6.63;;;9.70;94.70;;;9.30;84.98;96079.56;5025058;28;20466;-74
2022/11/17 10:53:39;;;;;;;7.03;6.40;;;9.60;94.70;;;9.40;85.44;96081.56;5008451;28;20461;-72
2022/11/17 10:56:13;;;;;;;7.20;6.50;;;9.60;94.80;;;9.71;84.21;96081.81;5012252;28;20469;-72
2022/11/17 10:59:02;;;;;;;7.73;6.93;;;9.70;94.90;;;9.83;83.93;96082.47;5025104;28;20475;-72